sensor_id;sensor_type;location;lat;lon;timestamp;P1;durP1;ratioP1;P2;durP2;ratioP2
79595;SDS011;69080;42.138;24.742;2023-04-06T10:11:43;5.82;;;3.55;;
79595;SDS011;69080;42.138;24.742;2023-04-06T10:14:10;7.65;;;3.17;;
79595;SDS011;69080;42.138;24.742;2023-04-06T10:16:36;10.25;;;3.50;;
79595;SDS011;69080;42.138;24.742;2023-04-06T10:19:06;5.40;;;3.40;;
79595;SDS011;69080;42.138;24.742;2023-04-06T10:21:41;5.47;;;3.45;;
79595;SDS011;69080;42.138;24.742;2023-04-06T10:24:12;5.95;;;3.42;;
79595;SDS011;69080;42.138;24.742;2023-04-06T10:26:38;8.65;;;3.70;;
79595;SDS011;69080;42.138;24.742;2023-04-06T10:29:05;5.40;;;3.40;;
79595;SDS011;69080;42.138;24.742;2023-04-06T10:31:31;6.35;;;3.20;;
79595;SDS011;69080;42.138;24.742;2023-04-06T10:33:57;6.68;;;3.38;;
79595;SDS011;69080;42.138;24.742;2023-04-06T10:36:25;5.65;;;3.30;;
79595;SDS011;69080;42.138;24.742;2023-04-06T10:38:58;5.80;;;3.22;;
79595;SDS011;69080;42.138;24.742;2023-04-06T10:41:42;7.37;;;3.37;;
79595;SDS011;69080;42.138;24.742;2023-04-06T10:44:22;5.28;;;3.15;;
79595;SDS011;69080;42.138;24.742;2023-04-06T10:46:56;7.47;;;3.33;;
79595;SDS011;69080;42.138;24.742;2023-04-06T10:49:23;5.25;;;3.10;;
79595;SDS011;69080;42.138;24.742;2023-04-06T10:51:56;5.30;;;3.17;;
79595;SDS011;69080;42.138;24.742;2023-04-06T10:54:23;5.88;;;3.30;;
79595;SDS011;69080;42.138;24.742;2023-04-06T10:56:51;6.00;;;3.10;;
79595;SDS011;69080;42.138;24.742;2023-04-06T10:59:20;5.40;;;3.38;;
79595;SDS011;69080;42.138;24.742;2023-04-06T11:01:46;5.13;;;3.25;;
79595;SDS011;69080;42.138;24.742;2023-04-06T11:04:15;6.10;;;3.03;;
79595;SDS011;69080;42.138;24.742;2023-04-06T11:06:41;5.28;;;3.20;;
79595;SDS011;69080;42.138;24.742;2023-04-06T11:09:22;5.15;;;3.20;;
79595;SDS011;69080;42.138;24.742;2023-04-06T11:11:52;6.47;;;3.13;;
79595;SDS011;69080;42.138;24.742;2023-04-06T11:14:18;7.22;;;2.90;;
79595;SDS011;69080;42.138;24.742;2023-04-06T11:16:45;5.60;;;3.03;;
79595;SDS011;69080;42.138;24.742;2023-04-06T11:19:13;6.30;;;3.08;;
79595;SDS011;69080;42.138;24.742;2023-04-06T11:21:40;6.15;;;3.20;;
79595;SDS011;69080;42.138;24.742;2023-04-06T11:24:10;5.53;;;2.93;;
79595;SDS011;69080;42.138;24.742;2023-04-06T11:26:46;5.07;;;3.00;;
79595;SDS011;69080;42.138;24.742;2023-04-06T11:29:20;5.55;;;2.97;;
79595;SDS011;69080;42.138;24.742;2023-04-06T11:31:53;5.70;;;3.30;;
79595;SDS011;69080;42.138;24.742;2023-04-06T11:34:23;5.50;;;2.90;;
79595;SDS011;69080;42.138;24.742;2023-04-06T11:36:57;5.22;;;3.10;;
79595;SDS011;69080;42.138;24.742;2023-04-06T11:39:24;5.53;;;2.88;;
79595;SDS011;69080;42.138;24.742;2023-04-06T11:41:52;6.43;;;3.00;;
79595;SDS011;69080;42.138;24.742;2023-04-06T11:46:54;6.78;;;3.17;;
79595;SDS011;69080;42.138;24.742;2023-04-06T11:49:26;5.05;;;2.92;;
79595;SDS011;69080;42.138;24.742;2023-04-06T11:51:53;5.07;;;2.97;;
79595;SDS011;69080;42.138;24.742;2023-04-06T11:54:28;4.95;;;2.80;;
79595;SDS011;69080;42.138;24.742;2023-04-06T11:57:03;5.00;;;2.80;;
79595;SDS011;69080;42.138;24.742;2023-04-06T11:59:30;5.00;;;3.00;;
79595;SDS011;69080;42.138;24.742;2023-04-06T12:02:00;5.07;;;2.80;;
79595;SDS011;69080;42.138;24.742;2023-04-06T12:04:27;5.13;;;3.10;;
79595;SDS011;69080;42.138;24.742;2023-04-06T12:06:53;5.55;;;3.05;;
79595;SDS011;69080;42.138;24.742;2023-04-06T12:09:20;6.68;;;2.88;;
79595;SDS011;69080;42.138;24.742;2023-04-06T12:11:46;9.45;;;3.05;;
79595;SDS011;69080;42.138;24.742;2023-04-06T12:14:12;5.82;;;3.28;;
79595;SDS011;69080;42.138;24.742;2023-04-06T12:16:38;6.78;;;2.80;;
79595;SDS011;69080;42.138;24.742;2023-04-06T12:19:04;5.55;;;3.10;;
79595;SDS011;69080;42.138;24.742;2023-04-06T12:21:30;5.80;;;2.92;;
79595;SDS011;69080;42.138;24.742;2023-04-06T12:23:57;5.90;;;2.88;;
79595;SDS011;69080;42.138;24.742;2023-04-06T12:26:24;5.00;;;2.90;;
79595;SDS011;69080;42.138;24.742;2023-04-06T12:28:50;5.47;;;2.88;;
79595;SDS011;69080;42.138;24.742;2023-04-06T12:31:20;5.47;;;2.97;;
79595;SDS011;69080;42.138;24.742;2023-04-06T12:33:47;5.97;;;3.30;;
79595;SDS011;69080;42.138;24.742;2023-04-06T12:36:17;6.93;;;3.00;;
79595;SDS011;69080;42.138;24.742;2023-04-06T12:38:47;10.32;;;2.90;;
79595;SDS011;69080;42.138;24.742;2023-04-06T12:41:14;5.15;;;3.10;;
79595;SDS011;69080;42.138;24.742;2023-04-06T12:43:40;6.63;;;2.95;;
79595;SDS011;69080;42.138;24.742;2023-04-06T12:46:07;7.28;;;3.20;;
79595;SDS011;69080;42.138;24.742;2023-04-06T12:48:33;8.00;;;3.05;;
79595;SDS011;69080;42.138;24.742;2023-04-06T12:50:59;5.18;;;3.08;;
79595;SDS011;69080;42.138;24.742;2023-04-06T12:53:26;9.55;;;3.30;;
79595;SDS011;69080;42.138;24.742;2023-04-06T12:55:53;6.38;;;2.92;;
79595;SDS011;69080;42.138;24.742;2023-04-06T12:58:20;6.47;;;3.10;;
79595;SDS011;69080;42.138;24.742;2023-04-06T13:00:47;6.05;;;3.28;;
79595;SDS011;69080;42.138;24.742;2023-04-06T13:03:14;5.22;;;2.92;;
79595;SDS011;69080;42.138;24.742;2023-04-06T13:05:43;5.68;;;3.30;;
79595;SDS011;69080;42.138;24.742;2023-04-06T13:08:10;5.68;;;3.08;;
79595;SDS011;69080;42.138;24.742;2023-04-06T13:10:36;5.18;;;3.20;;
79595;SDS011;69080;42.138;24.742;2023-04-06T13:13:02;5.32;;;3.22;;
79595;SDS011;69080;42.138;24.742;2023-04-06T13:15:28;5.25;;;3.22;;
79595;SDS011;69080;42.138;24.742;2023-04-06T13:17:53;6.28;;;3.13;;
79595;SDS011;69080;42.138;24.742;2023-04-06T13:20:19;5.32;;;2.95;;
79595;SDS011;69080;42.138;24.742;2023-04-06T13:22:45;5.93;;;3.30;;
79595;SDS011;69080;42.138;24.742;2023-04-06T13:25:11;5.75;;;3.15;;
79595;SDS011;69080;42.138;24.742;2023-04-06T13:27:36;7.53;;;2.90;;
79595;SDS011;69080;42.138;24.742;2023-04-06T13:30:03;5.25;;;2.92;;
79595;SDS011;69080;42.138;24.742;2023-04-06T13:32:30;5.93;;;3.17;;
79595;SDS011;69080;42.138;24.742;2023-04-06T13:34:56;5.70;;;3.40;;
79595;SDS011;69080;42.138;24.742;2023-04-06T13:37:22;7.90;;;3.03;;
79595;SDS011;69080;42.138;24.742;2023-04-06T13:39:48;5.82;;;3.20;;
79595;SDS011;69080;42.138;24.742;2023-04-06T13:42:13;5.90;;;3.30;;
79595;SDS011;69080;42.138;24.742;2023-04-06T13:44:39;6.22;;;3.30;;
79595;SDS011;69080;42.138;24.742;2023-04-06T13:47:05;5.95;;;3.20;;
79595;SDS011;69080;42.138;24.742;2023-04-06T13:49:30;6.97;;;3.30;;
79595;SDS011;69080;42.138;24.742;2023-04-06T13:51:57;6.50;;;3.10;;
79595;SDS011;69080;42.138;24.742;2023-04-06T13:54:23;5.60;;;3.25;;
79595;SDS011;69080;42.138;24.742;2023-04-06T13:56:49;5.68;;;3.13;;
79595;SDS011;69080;42.138;24.742;2023-04-06T13:59:16;4.90;;;3.03;;
79595;SDS011;69080;42.138;24.742;2023-04-06T14:01:41;6.68;;;3.35;;
79595;SDS011;69080;42.138;24.742;2023-04-06T14:04:09;5.15;;;3.10;;
79595;SDS011;69080;42.138;24.742;2023-04-06T14:06:34;5.70;;;3.13;;
79595;SDS011;69080;42.138;24.742;2023-04-06T14:09:00;5.40;;;3.20;;
79595;SDS011;69080;42.138;24.742;2023-04-06T14:11:26;6.53;;;3.40;;
79595;SDS011;69080;42.138;24.742;2023-04-06T14:13:51;6.53;;;3.10;;
79595;SDS011;69080;42.138;24.742;2023-04-06T14:16:17;5.40;;;3.10;;
79595;SDS011;69080;42.138;24.742;2023-04-06T14:18:44;6.23;;;3.40;;
79595;SDS011;69080;42.138;24.742;2023-04-06T14:21:10;5.30;;;3.00;;
79595;SDS011;69080;42.138;24.742;2023-04-06T14:23:36;5.43;;;3.35;;
79595;SDS011;69080;42.138;24.742;2023-04-06T14:26:02;5.50;;;3.28;;
79595;SDS011;69080;42.138;24.742;2023-04-06T14:28:29;5.60;;;3.30;;
79595;SDS011;69080;42.138;24.742;2023-04-06T14:30:56;6.65;;;3.10;;
79595;SDS011;69080;42.138;24.742;2023-04-06T14:33:21;5.60;;;3.30;;
79595;SDS011;69080;42.138;24.742;2023-04-06T14:35:47;6.00;;;3.25;;
79595;SDS011;69080;42.138;24.742;2023-04-06T14:38:13;7.63;;;3.10;;
79595;SDS011;69080;42.138;24.742;2023-04-06T14:40:38;4.88;;;3.05;;
79595;SDS011;69080;42.138;24.742;2023-04-06T14:43:04;5.40;;;3.22;;
79595;SDS011;69080;42.138;24.742;2023-04-06T14:45:32;5.88;;;3.42;;
79595;SDS011;69080;42.138;24.742;2023-04-06T14:47:59;5.50;;;3.20;;
79595;SDS011;69080;42.138;24.742;2023-04-06T14:50:25;10.32;;;3.40;;
79595;SDS011;69080;42.138;24.742;2023-04-06T14:52:50;6.05;;;3.28;;
79595;SDS011;69080;42.138;24.742;2023-04-06T14:55:16;5.70;;;3.25;;
79595;SDS011;69080;42.138;24.742;2023-04-06T14:57:42;6.18;;;3.22;;
79595;SDS011;69080;42.138;24.742;2023-04-06T15:00:07;5.50;;;3.13;;
79595;SDS011;69080;42.138;24.742;2023-04-06T15:02:34;5.60;;;3.20;;
79595;SDS011;69080;42.138;24.742;2023-04-06T15:05:01;5.38;;;3.10;;
79595;SDS011;69080;42.138;24.742;2023-04-06T15:07:27;5.63;;;3.25;;
79595;SDS011;69080;42.138;24.742;2023-04-06T15:09:53;5.88;;;3.50;;
79595;SDS011;69080;42.138;24.742;2023-04-06T15:12:19;6.57;;;3.17;;
79595;SDS011;69080;42.138;24.742;2023-04-06T15:14:45;5.88;;;3.30;;
79595;SDS011;69080;42.138;24.742;2023-04-06T15:17:10;5.53;;;3.25;;
79595;SDS011;69080;42.138;24.742;2023-04-06T15:19:36;5.00;;;3.10;;
79595;SDS011;69080;42.138;24.742;2023-04-06T15:22:02;7.88;;;3.50;;
79595;SDS011;69080;42.138;24.742;2023-04-06T15:24:27;5.88;;;3.20;;
79595;SDS011;69080;42.138;24.742;2023-04-06T15:26:53;5.75;;;2.88;;
79595;SDS011;69080;42.138;24.742;2023-04-06T15:29:19;6.15;;;3.10;;
79595;SDS011;69080;42.138;24.742;2023-04-06T15:31:45;8.45;;;3.28;;
79595;SDS011;69080;42.138;24.742;2023-04-06T15:34:11;4.95;;;3.10;;
79595;SDS011;69080;42.138;24.742;2023-04-06T15:36:37;8.95;;;3.17;;
79595;SDS011;69080;42.138;24.742;2023-04-06T15:39:02;5.47;;;3.20;;
79595;SDS011;69080;42.138;24.742;2023-04-06T15:41:31;7.55;;;3.60;;
79595;SDS011;69080;42.138;24.742;2023-04-06T15:43:56;5.80;;;3.13;;
79595;SDS011;69080;42.138;24.742;2023-04-06T15:46:22;5.95;;;3.30;;
79595;SDS011;69080;42.138;24.742;2023-04-06T15:48:48;5.90;;;3.30;;
79595;SDS011;69080;42.138;24.742;2023-04-06T15:51:14;5.47;;;3.25;;
79595;SDS011;69080;42.138;24.742;2023-04-06T15:53:41;7.50;;;3.40;;
79595;SDS011;69080;42.138;24.742;2023-04-06T15:56:07;5.30;;;3.25;;
79595;SDS011;69080;42.138;24.742;2023-04-06T15:58:33;8.90;;;3.50;;
79595;SDS011;69080;42.138;24.742;2023-04-06T16:01:00;5.95;;;3.33;;
79595;SDS011;69080;42.138;24.742;2023-04-06T16:03:26;6.03;;;3.60;;
79595;SDS011;69080;42.138;24.742;2023-04-06T16:05:52;4.95;;;2.95;;
79595;SDS011;69080;42.138;24.742;2023-04-06T16:08:18;5.22;;;3.20;;
79595;SDS011;69080;42.138;24.742;2023-04-06T16:10:44;5.63;;;3.38;;
79595;SDS011;69080;42.138;24.742;2023-04-06T16:13:10;6.30;;;3.63;;
79595;SDS011;69080;42.138;24.742;2023-04-06T16:15:36;5.30;;;3.20;;
79595;SDS011;69080;42.138;24.742;2023-04-06T16:18:01;6.10;;;3.28;;
79595;SDS011;69080;42.138;24.742;2023-04-06T16:20:28;5.25;;;3.20;;
79595;SDS011;69080;42.138;24.742;2023-04-06T16:22:54;5.68;;;3.30;;
79595;SDS011;69080;42.138;24.742;2023-04-06T16:25:20;5.68;;;3.20;;
79595;SDS011;69080;42.138;24.742;2023-04-06T16:27:46;5.78;;;3.50;;
79595;SDS011;69080;42.138;24.742;2023-04-06T16:30:12;5.03;;;2.90;;
79595;SDS011;69080;42.138;24.742;2023-04-06T16:32:38;5.15;;;3.20;;
79595;SDS011;69080;42.138;24.742;2023-04-06T16:35:03;5.43;;;3.25;;
79595;SDS011;69080;42.138;24.742;2023-04-06T16:37:30;5.38;;;3.33;;
79595;SDS011;69080;42.138;24.742;2023-04-06T16:39:55;6.70;;;3.33;;
79595;SDS011;69080;42.138;24.742;2023-04-06T16:42:21;6.00;;;3.25;;
79595;SDS011;69080;42.138;24.742;2023-04-06T16:44:47;5.82;;;3.20;;
79595;SDS011;69080;42.138;24.742;2023-04-06T16:47:13;5.35;;;3.50;;
79595;SDS011;69080;42.138;24.742;2023-04-06T16:49:40;6.05;;;3.50;;
79595;SDS011;69080;42.138;24.742;2023-04-06T16:52:06;5.47;;;3.28;;
79595;SDS011;69080;42.138;24.742;2023-04-06T16:54:32;6.15;;;3.55;;
79595;SDS011;69080;42.138;24.742;2023-04-06T16:57:01;5.72;;;3.50;;
79595;SDS011;69080;42.138;24.742;2023-04-06T16:59:28;5.85;;;3.30;;
79595;SDS011;69080;42.138;24.742;2023-04-06T17:01:54;6.43;;;3.50;;
79595;SDS011;69080;42.138;24.742;2023-04-06T17:04:20;5.72;;;3.55;;
79595;SDS011;69080;42.138;24.742;2023-04-06T17:06:47;5.70;;;3.50;;
79595;SDS011;69080;42.138;24.742;2023-04-06T17:09:13;5.30;;;3.40;;
79595;SDS011;69080;42.138;24.742;2023-04-06T17:11:39;6.10;;;3.53;;
79595;SDS011;69080;42.138;24.742;2023-04-06T17:14:04;6.03;;;3.47;;
79595;SDS011;69080;42.138;24.742;2023-04-06T17:16:32;5.60;;;3.58;;
79595;SDS011;69080;42.138;24.742;2023-04-06T17:18:57;6.20;;;3.50;;
79595;SDS011;69080;42.138;24.742;2023-04-06T17:21:23;5.63;;;3.50;;
79595;SDS011;69080;42.138;24.742;2023-04-06T17:23:50;5.80;;;3.63;;
79595;SDS011;69080;42.138;24.742;2023-04-06T17:26:15;6.68;;;3.60;;
79595;SDS011;69080;42.138;24.742;2023-04-06T17:28:41;5.80;;;3.60;;
79595;SDS011;69080;42.138;24.742;2023-04-06T17:31:08;6.05;;;3.70;;
79595;SDS011;69080;42.138;24.742;2023-04-06T17:33:37;6.03;;;3.80;;
79595;SDS011;69080;42.138;24.742;2023-04-06T17:36:04;5.78;;;3.58;;
79595;SDS011;69080;42.138;24.742;2023-04-06T17:38:30;5.50;;;3.53;;
79595;SDS011;69080;42.138;24.742;2023-04-06T17:40:56;6.28;;;3.83;;
79595;SDS011;69080;42.138;24.742;2023-04-06T17:43:22;7.43;;;4.18;;
79595;SDS011;69080;42.138;24.742;2023-04-06T17:45:48;7.00;;;3.90;;
79595;SDS011;69080;42.138;24.742;2023-04-06T17:48:17;6.07;;;3.70;;
79595;SDS011;69080;42.138;24.742;2023-04-06T17:50:43;5.80;;;3.75;;
79595;SDS011;69080;42.138;24.742;2023-04-06T17:53:09;7.57;;;4.00;;
79595;SDS011;69080;42.138;24.742;2023-04-06T17:55:35;6.65;;;3.90;;
79595;SDS011;69080;42.138;24.742;2023-04-06T17:58:01;6.05;;;3.90;;
79595;SDS011;69080;42.138;24.742;2023-04-06T18:00:27;6.10;;;3.95;;
79595;SDS011;69080;42.138;24.742;2023-04-06T18:02:53;6.28;;;3.72;;
79595;SDS011;69080;42.138;24.742;2023-04-06T18:05:19;5.53;;;3.72;;
79595;SDS011;69080;42.138;24.742;2023-04-06T18:07:46;6.93;;;3.90;;
79595;SDS011;69080;42.138;24.742;2023-04-06T18:10:12;6.45;;;4.10;;
79595;SDS011;69080;42.138;24.742;2023-04-06T18:12:38;6.10;;;3.72;;
79595;SDS011;69080;42.138;24.742;2023-04-06T18:15:04;6.47;;;4.03;;
79595;SDS011;69080;42.138;24.742;2023-04-06T18:17:30;6.13;;;3.90;;
79595;SDS011;69080;42.138;24.742;2023-04-06T18:19:56;6.63;;;4.10;;
79595;SDS011;69080;42.138;24.742;2023-04-06T18:22:22;7.35;;;4.15;;
79595;SDS011;69080;42.138;24.742;2023-04-06T18:24:47;6.57;;;4.13;;
79595;SDS011;69080;42.138;24.742;2023-04-06T18:27:13;6.13;;;4.20;;
79595;SDS011;69080;42.138;24.742;2023-04-06T18:29:39;6.68;;;4.13;;
79595;SDS011;69080;42.138;24.742;2023-04-06T18:32:07;7.63;;;4.43;;
79595;SDS011;69080;42.138;24.742;2023-04-06T18:34:33;6.10;;;4.20;;
79595;SDS011;69080;42.138;24.742;2023-04-06T18:37:00;6.13;;;4.15;;
79595;SDS011;69080;42.138;24.742;2023-04-06T18:39:25;6.70;;;4.20;;
79595;SDS011;69080;42.138;24.742;2023-04-06T18:41:51;6.70;;;4.22;;
79595;SDS011;69080;42.138;24.742;2023-04-06T18:44:17;6.95;;;4.32;;
79595;SDS011;69080;42.138;24.742;2023-04-06T18:46:43;6.28;;;4.32;;
79595;SDS011;69080;42.138;24.742;2023-04-06T18:49:10;7.95;;;4.85;;
79595;SDS011;69080;42.138;24.742;2023-04-06T18:51:36;6.68;;;4.68;;
79595;SDS011;69080;42.138;24.742;2023-04-06T18:54:02;6.65;;;4.60;;
79595;SDS011;69080;42.138;24.742;2023-04-06T18:56:28;6.43;;;4.28;;
79595;SDS011;69080;42.138;24.742;2023-04-06T18:58:53;7.10;;;4.63;;
79595;SDS011;69080;42.138;24.742;2023-04-06T19:01:26;9.05;;;5.00;;
79595;SDS011;69080;42.138;24.742;2023-04-06T19:03:53;7.05;;;4.93;;
79595;SDS011;69080;42.138;24.742;2023-04-06T19:06:19;8.85;;;5.07;;
79595;SDS011;69080;42.138;24.742;2023-04-06T19:08:46;8.35;;;5.28;;
79595;SDS011;69080;42.138;24.742;2023-04-06T19:11:12;7.38;;;4.65;;
79595;SDS011;69080;42.138;24.742;2023-04-06T19:13:38;7.38;;;5.03;;
79595;SDS011;69080;42.138;24.742;2023-04-06T19:16:07;7.80;;;5.00;;
79595;SDS011;69080;42.138;24.742;2023-04-06T19:18:33;8.55;;;5.07;;
79595;SDS011;69080;42.138;24.742;2023-04-06T19:21:01;7.00;;;5.20;;
79595;SDS011;69080;42.138;24.742;2023-04-06T19:23:27;8.27;;;5.40;;
79595;SDS011;69080;42.138;24.742;2023-04-06T19:25:53;7.35;;;5.05;;
79595;SDS011;69080;42.138;24.742;2023-04-06T19:28:19;8.05;;;4.90;;
79595;SDS011;69080;42.138;24.742;2023-04-06T19:30:44;7.30;;;5.00;;
79595;SDS011;69080;42.138;24.742;2023-04-06T19:33:10;7.85;;;5.32;;
79595;SDS011;69080;42.138;24.742;2023-04-06T19:35:36;7.50;;;5.05;;
79595;SDS011;69080;42.138;24.742;2023-04-06T19:38:02;7.65;;;5.18;;
79595;SDS011;69080;42.138;24.742;2023-04-06T19:40:28;8.05;;;5.45;;
79595;SDS011;69080;42.138;24.742;2023-04-06T19:42:53;8.27;;;5.50;;
79595;SDS011;69080;42.138;24.742;2023-04-06T19:45:19;7.43;;;5.25;;
79595;SDS011;69080;42.138;24.742;2023-04-06T19:47:45;8.70;;;5.78;;
79595;SDS011;69080;42.138;24.742;2023-04-06T19:50:11;7.40;;;5.40;;
79595;SDS011;69080;42.138;24.742;2023-04-06T19:52:37;7.93;;;5.53;;
79595;SDS011;69080;42.138;24.742;2023-04-06T19:55:02;9.15;;;5.53;;
79595;SDS011;69080;42.138;24.742;2023-04-06T19:57:28;7.80;;;5.63;;
79595;SDS011;69080;42.138;24.742;2023-04-06T19:59:54;8.15;;;5.90;;
79595;SDS011;69080;42.138;24.742;2023-04-06T20:02:20;7.70;;;5.57;;
79595;SDS011;69080;42.138;24.742;2023-04-06T20:04:46;8.55;;;5.63;;
79595;SDS011;69080;42.138;24.742;2023-04-06T20:07:12;9.30;;;6.30;;
79595;SDS011;69080;42.138;24.742;2023-04-06T20:09:37;7.72;;;5.57;;
79595;SDS011;69080;42.138;24.742;2023-04-06T20:12:03;8.18;;;5.85;;
79595;SDS011;69080;42.138;24.742;2023-04-06T20:14:29;8.00;;;5.82;;
79595;SDS011;69080;42.138;24.742;2023-04-06T20:16:55;9.38;;;6.20;;
79595;SDS011;69080;42.138;24.742;2023-04-06T20:19:21;9.00;;;6.00;;
79595;SDS011;69080;42.138;24.742;2023-04-06T20:21:46;8.05;;;5.72;;
79595;SDS011;69080;42.138;24.742;2023-04-06T20:24:12;8.82;;;6.25;;
79595;SDS011;69080;42.138;24.742;2023-04-06T20:26:38;8.73;;;5.53;;
79595;SDS011;69080;42.138;24.742;2023-04-06T20:29:04;8.70;;;6.30;;
79595;SDS011;69080;42.138;24.742;2023-04-06T20:31:30;8.25;;;5.82;;
79595;SDS011;69080;42.138;24.742;2023-04-06T20:33:56;9.50;;;6.07;;
79595;SDS011;69080;42.138;24.742;2023-04-06T20:36:21;8.30;;;5.88;;
79595;SDS011;69080;42.138;24.742;2023-04-06T20:38:48;8.57;;;6.00;;
79595;SDS011;69080;42.138;24.742;2023-04-06T20:41:13;9.07;;;6.10;;
79595;SDS011;69080;42.138;24.742;2023-04-06T20:43:40;9.23;;;6.45;;
79595;SDS011;69080;42.138;24.742;2023-04-06T20:46:05;8.25;;;5.88;;
79595;SDS011;69080;42.138;24.742;2023-04-06T20:48:33;9.10;;;6.53;;
79595;SDS011;69080;42.138;24.742;2023-04-06T20:51:02;9.02;;;6.50;;
79595;SDS011;69080;42.138;24.742;2023-04-06T20:53:28;7.75;;;6.10;;
79595;SDS011;69080;42.138;24.742;2023-04-06T20:55:55;8.40;;;5.97;;
79595;SDS011;69080;42.138;24.742;2023-04-06T20:58:22;9.18;;;6.30;;
79595;SDS011;69080;42.138;24.742;2023-04-06T21:00:48;8.90;;;6.40;;
79595;SDS011;69080;42.138;24.742;2023-04-06T21:03:14;8.50;;;5.90;;
79595;SDS011;69080;42.138;24.742;2023-04-06T21:05:48;9.10;;;6.05;;
79595;SDS011;69080;42.138;24.742;2023-04-06T21:08:18;9.43;;;6.20;;
79595;SDS011;69080;42.138;24.742;2023-04-06T21:10:43;8.38;;;6.15;;
79595;SDS011;69080;42.138;24.742;2023-04-06T21:13:09;8.38;;;5.80;;
79595;SDS011;69080;42.138;24.742;2023-04-06T21:15:35;8.68;;;6.10;;
79595;SDS011;69080;42.138;24.742;2023-04-06T21:18:00;8.82;;;6.05;;
79595;SDS011;69080;42.138;24.742;2023-04-06T21:20:26;9.43;;;6.05;;
79595;SDS011;69080;42.138;24.742;2023-04-06T21:22:51;8.60;;;6.35;;
79595;SDS011;69080;42.138;24.742;2023-04-06T21:25:17;8.35;;;6.22;;
79595;SDS011;69080;42.138;24.742;2023-04-06T21:27:43;8.63;;;6.28;;
79595;SDS011;69080;42.138;24.742;2023-04-06T21:30:08;8.70;;;6.00;;
79595;SDS011;69080;42.138;24.742;2023-04-06T21:32:34;8.77;;;6.18;;
79595;SDS011;69080;42.138;24.742;2023-04-06T21:35:01;9.05;;;6.22;;
79595;SDS011;69080;42.138;24.742;2023-04-06T21:37:27;9.68;;;6.07;;
79595;SDS011;69080;42.138;24.742;2023-04-06T21:39:53;8.75;;;6.20;;
79595;SDS011;69080;42.138;24.742;2023-04-06T21:42:21;9.10;;;6.20;;
79595;SDS011;69080;42.138;24.742;2023-04-06T21:44:46;8.68;;;6.57;;
79595;SDS011;69080;42.138;24.742;2023-04-06T21:47:12;8.98;;;6.35;;
79595;SDS011;69080;42.138;24.742;2023-04-06T21:49:38;8.93;;;6.05;;
79595;SDS011;69080;42.138;24.742;2023-04-06T21:52:03;9.00;;;6.60;;
79595;SDS011;69080;42.138;24.742;2023-04-06T21:54:32;8.20;;;6.13;;
79595;SDS011;69080;42.138;24.742;2023-04-06T21:56:58;8.45;;;6.30;;
79595;SDS011;69080;42.138;24.742;2023-04-06T21:59:25;8.40;;;6.30;;
79595;SDS011;69080;42.138;24.742;2023-04-06T22:01:52;9.25;;;6.50;;
79595;SDS011;69080;42.138;24.742;2023-04-06T22:04:17;8.70;;;6.20;;
79595;SDS011;69080;42.138;24.742;2023-04-06T22:06:43;9.00;;;6.28;;
79595;SDS011;69080;42.138;24.742;2023-04-06T22:09:08;9.80;;;6.68;;
79595;SDS011;69080;42.138;24.742;2023-04-06T22:11:34;8.70;;;6.47;;
79595;SDS011;69080;42.138;24.742;2023-04-06T22:14:00;8.75;;;6.10;;
79595;SDS011;69080;42.138;24.742;2023-04-06T22:16:26;9.02;;;6.18;;
79595;SDS011;69080;42.138;24.742;2023-04-06T22:18:52;8.20;;;6.38;;
79595;SDS011;69080;42.138;24.742;2023-04-06T22:21:18;9.13;;;6.57;;
79595;SDS011;69080;42.138;24.742;2023-04-06T22:23:43;8.63;;;6.38;;
79595;SDS011;69080;42.138;24.742;2023-04-06T22:26:11;8.13;;;6.05;;
79595;SDS011;69080;42.138;24.742;2023-04-06T22:28:36;10.30;;;6.73;;
79595;SDS011;69080;42.138;24.742;2023-04-06T22:31:02;9.60;;;6.75;;
79595;SDS011;69080;42.138;24.742;2023-04-06T22:33:28;8.70;;;6.15;;
79595;SDS011;69080;42.138;24.742;2023-04-06T22:35:53;8.68;;;6.38;;
79595;SDS011;69080;42.138;24.742;2023-04-06T22:38:19;9.32;;;6.68;;
79595;SDS011;69080;42.138;24.742;2023-04-06T22:40:45;10.88;;;6.45;;
79595;SDS011;69080;42.138;24.742;2023-04-06T22:43:12;10.20;;;6.75;;
79595;SDS011;69080;42.138;24.742;2023-04-06T22:45:37;9.48;;;6.70;;
79595;SDS011;69080;42.138;24.742;2023-04-06T22:48:03;8.73;;;6.22;;
79595;SDS011;69080;42.138;24.742;2023-04-06T22:50:28;9.45;;;6.65;;
79595;SDS011;69080;42.138;24.742;2023-04-06T22:52:54;8.43;;;6.32;;
79595;SDS011;69080;42.138;24.742;2023-04-06T22:55:20;8.50;;;6.20;;
79595;SDS011;69080;42.138;24.742;2023-04-06T22:57:46;10.52;;;6.32;;
79595;SDS011;69080;42.138;24.742;2023-04-06T23:00:11;8.65;;;6.35;;
79595;SDS011;69080;42.138;24.742;2023-04-06T23:02:37;8.85;;;6.32;;
79595;SDS011;69080;42.138;24.742;2023-04-06T23:05:03;9.00;;;6.30;;
79595;SDS011;69080;42.138;24.742;2023-04-06T23:07:29;9.75;;;6.80;;
79595;SDS011;69080;42.138;24.742;2023-04-06T23:09:56;10.10;;;6.40;;
79595;SDS011;69080;42.138;24.742;2023-04-06T23:12:22;8.50;;;6.28;;
79595;SDS011;69080;42.138;24.742;2023-04-06T23:14:48;9.13;;;7.00;;
79595;SDS011;69080;42.138;24.742;2023-04-06T23:17:14;9.63;;;6.68;;
79595;SDS011;69080;42.138;24.742;2023-04-06T23:19:39;9.18;;;6.30;;
79595;SDS011;69080;42.138;24.742;2023-04-06T23:22:05;9.80;;;6.47;;
79595;SDS011;69080;42.138;24.742;2023-04-06T23:24:31;10.05;;;6.70;;
79595;SDS011;69080;42.138;24.742;2023-04-06T23:26:57;8.93;;;6.60;;
79595;SDS011;69080;42.138;24.742;2023-04-06T23:29:22;9.85;;;6.45;;
79595;SDS011;69080;42.138;24.742;2023-04-06T23:31:48;8.88;;;6.95;;
79595;SDS011;69080;42.138;24.742;2023-04-06T23:34:13;8.70;;;6.50;;
79595;SDS011;69080;42.138;24.742;2023-04-06T23:36:39;11.00;;;6.78;;
79595;SDS011;69080;42.138;24.742;2023-04-06T23:39:05;8.65;;;6.55;;
79595;SDS011;69080;42.138;24.742;2023-04-06T23:41:31;8.90;;;6.40;;
79595;SDS011;69080;42.138;24.742;2023-04-06T23:43:56;9.43;;;6.47;;
79595;SDS011;69080;42.138;24.742;2023-04-06T23:46:22;9.70;;;6.70;;
79595;SDS011;69080;42.138;24.742;2023-04-06T23:48:47;9.88;;;6.45;;
79595;SDS011;69080;42.138;24.742;2023-04-06T23:51:13;9.30;;;6.63;;
79595;SDS011;69080;42.138;24.742;2023-04-06T23:53:39;9.88;;;6.65;;
79595;SDS011;69080;42.138;24.742;2023-04-06T23:56:05;9.98;;;6.45;;
79595;SDS011;69080;42.138;24.742;2023-04-06T23:58:31;9.15;;;6.40;;
